Clear Lake, Minnesota
Current Conditions -  °F | °C
As of 5:53 AM on Thursday 29 Jan 2015 (Local Time) from KSTC Reporting Station
Overcast Overcast  
Wind Chill: 15°   Ceiling: 1500
Heat Index: 28°   Visibility: 10mi
Dew Point: 23°   Wind: 18mph
Humidity: 81%   Direction: 320°NW
Pressure: 30.06"   Gusts: 33mph
Location:  45.44°N, 94°W
Report Text: KSTC 291153Z AUTO 32016G29KT 10SM OVC015 M02/M05 A3006 RMK AO2 PK WND 31029/1144 SLP201 60000 I6001 T10221050 10006 21022 53041
Loading
Personal Weather Stations






























Interactive Weather Map New forecast layout! Learn more

10-Day Weather Forecast

Advertisements
Track Severe Weather on mobile